createdAt,value
2018-10-19T00:00:41.507Z,100298.50
2018-10-19T00:03:09.182Z,100298.23
2018-10-19T00:05:36.634Z,100293.23
2018-10-19T00:08:04.213Z,100289.30
2018-10-19T00:10:31.891Z,100289.76
2018-10-19T00:12:59.457Z,100288.42
2018-10-19T00:15:27.162Z,100289.50
2018-10-19T00:17:54.700Z,100294.09
2018-10-19T00:20:22.297Z,100292.41
2018-10-19T00:22:49.830Z,100290.88
2018-10-19T00:25:17.425Z,100291.78
2018-10-19T00:27:45.067Z,100287.29
2018-10-19T00:30:12.621Z,100291.19
2018-10-19T00:32:40.336Z,100293.78
2018-10-19T00:35:08.520Z,100291.42
2018-10-19T00:37:36.050Z,100292.76
2018-10-19T00:40:03.604Z,100284.41
2018-10-19T00:42:31.377Z,100285.08
2018-10-19T00:44:59.144Z,100281.58
2018-10-19T00:47:26.719Z,100276.69
2018-10-19T00:49:54.313Z,100279.45
2018-10-19T00:52:21.903Z,100279.37
2018-10-19T00:54:49.432Z,100281.73
2018-10-19T00:57:17.086Z,100276.86
2018-10-19T00:59:44.765Z,100281.11
2018-10-19T01:02:12.321Z,100287.00
2018-10-19T01:04:39.879Z,100282.71
2018-10-19T01:07:08.504Z,100281.42
2018-10-19T01:09:36.050Z,100281.61
2018-10-19T01:12:03.589Z,100284.61
2018-10-19T01:14:31.163Z,100281.42
2018-10-19T01:16:58.818Z,100281.42
2018-10-19T01:19:26.338Z,100281.58
2018-10-19T01:21:53.917Z,100275.00
2018-10-19T01:24:21.548Z,100280.20
2018-10-19T01:26:49.123Z,100277.25
2018-10-19T01:29:16.752Z,100280.23
2018-10-19T01:31:44.295Z,100276.78
2018-10-19T01:34:11.814Z,100274.81
2018-10-19T01:36:39.459Z,100275.28
2018-10-19T01:39:07.045Z,100268.27
2018-10-19T01:41:34.613Z,100273.47
2018-10-19T01:44:02.175Z,100271.54
2018-10-19T01:46:29.919Z,100272.01
2018-10-19T01:48:57.464Z,100269.13
2018-10-19T01:51:25.069Z,100265.20
2018-10-19T01:53:52.656Z,100269.48
2018-10-19T01:56:20.230Z,100268.81
2018-10-19T01:58:47.795Z,100269.88
2018-10-19T02:01:15.324Z,100269.91
2018-10-19T02:03:42.894Z,100273.20
2018-10-19T02:06:10.434Z,100273.84
2018-10-19T02:08:37.950Z,100279.98
2018-10-19T02:11:05.612Z,100280.92
2018-10-19T02:13:33.121Z,100283.95
2018-10-19T02:16:00.692Z,100279.55
2018-10-19T02:18:28.243Z,100281.50
2018-10-19T02:20:55.919Z,100278.16
2018-10-19T02:23:23.471Z,100279.88
2018-10-19T02:25:51.036Z,100283.89
2018-10-19T02:28:18.594Z,100284.31
2018-10-19T02:30:46.166Z,100289.77
2018-10-19T02:33:13.796Z,100286.76
2018-10-19T02:35:41.264Z,100284.87
2018-10-19T02:38:08.859Z,100285.19
2018-10-19T02:40:36.418Z,100286.91
2018-10-19T02:43:03.984Z,100281.22
2018-10-19T02:45:31.504Z,100276.93
2018-10-19T02:47:59.069Z,100286.19
2018-10-19T02:50:26.634Z,100278.02
2018-10-19T02:52:54.234Z,100282.44
2018-10-19T02:55:21.775Z,100278.88
2018-10-19T02:57:49.305Z,100285.86
2018-10-19T03:00:16.892Z,100286.42
2018-10-19T03:02:44.410Z,100282.33
2018-10-19T03:05:12.029Z,100275.00
2018-10-19T03:07:39.595Z,100283.64
2018-10-19T03:10:07.154Z,100280.70
2018-10-19T03:12:34.703Z,100285.36
2018-10-19T03:15:02.325Z,100282.67
2018-10-19T03:17:29.860Z,100281.11
2018-10-19T03:19:57.445Z,100277.39
2018-10-19T03:22:24.968Z,100273.36
2018-10-19T03:24:52.570Z,100274.84
2018-10-19T03:27:20.232Z,100276.41
2018-10-19T03:29:47.856Z,100267.97
2018-10-19T03:32:15.428Z,100264.95
2018-10-19T03:34:42.943Z,100274.05
2018-10-19T03:37:10.513Z,100263.92
2018-10-19T03:39:38.061Z,100266.81
2018-10-19T03:42:05.735Z,100267.84
2018-10-19T03:44:33.264Z,100272.25
2018-10-19T03:47:01.007Z,100272.02
2018-10-19T03:49:28.519Z,100279.53
2018-10-19T03:51:56.069Z,100271.88
2018-10-19T03:54:23.677Z,100278.18
2018-10-19T03:56:51.248Z,100276.58
2018-10-19T03:59:18.953Z,100277.37
2018-10-19T04:01:46.405Z,100279.69
2018-10-19T04:04:14.097Z,100284.58
2018-10-19T04:06:41.871Z,100289.16
2018-10-19T04:09:09.437Z,100286.91
2018-10-19T04:11:37.103Z,100289.70
2018-10-19T04:14:04.641Z,100287.10
2018-10-19T04:16:32.198Z,100288.33
2018-10-19T04:18:59.773Z,100287.22
2018-10-19T04:21:27.296Z,100290.47
2018-10-19T04:23:55.017Z,100288.61
2018-10-19T04:26:22.597Z,100292.73
2018-10-19T04:28:50.181Z,100293.28
2018-10-19T04:31:17.932Z,100292.73
2018-10-19T04:33:45.511Z,100294.31
2018-10-19T04:36:13.064Z,100290.56
2018-10-19T04:38:40.661Z,100291.72
2018-10-19T04:41:08.241Z,100289.22
2018-10-19T04:43:35.889Z,100287.71
2018-10-19T04:46:03.444Z,100283.00
2018-10-19T04:48:31.127Z,100281.73
2018-10-19T04:50:58.664Z,100284.09
2018-10-19T04:53:26.360Z,100283.19
2018-10-19T04:55:53.850Z,100298.22
2018-10-19T04:58:24.921Z,100282.85
2018-10-19T05:00:52.647Z,100286.28
2018-10-19T05:03:20.203Z,100282.49
2018-10-19T05:05:47.949Z,100286.50
2018-10-19T05:08:15.602Z,100291.53
2018-10-19T05:10:43.161Z,100290.11
2018-10-19T05:13:10.971Z,100301.25
2018-10-19T05:15:38.466Z,100304.91
2018-10-19T05:18:06.041Z,100306.08
2018-10-19T05:20:33.574Z,100310.46
2018-10-19T05:23:01.176Z,100308.94
2018-10-19T05:25:28.688Z,100301.53
2018-10-19T05:27:56.384Z,100300.12
2018-10-19T05:30:23.910Z,100297.45
2018-10-19T05:32:51.509Z,100305.00
2018-10-19T05:35:19.087Z,100293.07
2018-10-19T05:37:46.698Z,100296.78
2018-10-19T05:40:14.273Z,100294.34
2018-10-19T05:42:41.808Z,100294.97
2018-10-19T05:45:09.391Z,100294.09
2018-10-19T05:47:36.936Z,100292.83
2018-10-19T05:50:04.669Z,100296.52
2018-10-19T05:52:32.243Z,100299.45
2018-10-19T05:54:59.906Z,100300.42
2018-10-19T05:57:27.636Z,100306.39
2018-10-19T05:59:55.256Z,100305.47
2018-10-19T06:02:22.992Z,100309.47
2018-10-19T06:04:50.617Z,100305.40
2018-10-19T06:07:18.207Z,100311.45
2018-10-19T06:09:47.720Z,100308.02
2018-10-19T06:12:15.268Z,100309.08
2018-10-19T06:14:43.376Z,100305.33
2018-10-19T06:17:12.389Z,100313.42
2018-10-19T06:19:40.095Z,100310.67
2018-10-19T06:22:08.740Z,100312.20
2018-10-19T06:24:37.198Z,100316.66
2018-10-19T06:27:04.909Z,100316.47
2018-10-19T06:29:33.345Z,100320.19
2018-10-19T06:32:01.102Z,100324.91
2018-10-19T06:34:29.779Z,100322.73
2018-10-19T06:36:57.600Z,100324.50
2018-10-19T06:39:25.594Z,100322.07
2018-10-19T06:41:53.255Z,100323.52
2018-10-19T06:44:21.599Z,100325.53
2018-10-19T06:46:49.258Z,100323.39
2018-10-19T06:49:16.740Z,100322.69
2018-10-19T06:51:44.337Z,100329.41
2018-10-19T06:54:13.008Z,100324.00
2018-10-19T06:56:40.592Z,100330.97
2018-10-19T06:59:08.348Z,100337.38
2018-10-19T07:01:35.809Z,100337.38
2018-10-19T07:04:03.375Z,100343.22
2018-10-19T07:06:30.918Z,100339.97
2018-10-19T07:08:58.679Z,100343.08
2018-10-19T07:11:26.268Z,100340.84
2018-10-19T07:13:53.863Z,100340.73
2018-10-19T07:16:21.405Z,100333.61
2018-10-19T07:18:48.981Z,100341.81
2018-10-19T07:21:16.498Z,100345.89
2018-10-19T07:23:44.073Z,100337.74
2018-10-19T07:26:12.275Z,100337.95
2018-10-19T07:28:40.173Z,100343.09
2018-10-19T07:31:08.639Z,100344.60
2018-10-19T07:33:37.502Z,100335.45
2018-10-19T07:36:05.490Z,100343.73
2018-10-19T07:38:33.319Z,100342.67
2018-10-19T07:41:01.192Z,100342.40
2018-10-19T07:43:29.074Z,100342.64
2018-10-19T07:45:56.921Z,100337.31
2018-10-19T07:48:24.703Z,100342.75
2018-10-19T07:50:52.326Z,100341.86
2018-10-19T07:53:19.898Z,100345.33
2018-10-19T07:55:47.479Z,100350.97
2018-10-19T07:58:15.040Z,100348.98
2018-10-19T08:00:42.733Z,100356.36
2018-10-19T08:03:10.314Z,100354.26
2018-10-19T08:05:38.414Z,100358.62
2018-10-19T08:08:06.360Z,100355.77
2018-10-19T08:10:34.288Z,100366.92
2018-10-19T08:13:02.343Z,100366.80
2018-10-19T08:15:29.998Z,100366.92
2018-10-19T08:17:57.560Z,100369.31
2018-10-19T08:20:25.176Z,100368.20
2018-10-19T08:22:52.921Z,100369.55
2018-10-19T08:25:20.690Z,100370.48
2018-10-19T08:27:48.415Z,100379.09
2018-10-19T08:30:16.030Z,100378.12
2018-10-19T08:32:43.569Z,100373.92
2018-10-19T08:35:11.198Z,100381.08
2018-10-19T08:37:39.007Z,100386.41
2018-10-19T08:40:06.697Z,100379.91
2018-10-19T08:42:34.246Z,100381.89
2018-10-19T08:45:02.004Z,100378.82
2018-10-19T08:47:29.553Z,100375.98
2018-10-19T08:49:58.211Z,100380.35
2018-10-19T08:52:25.807Z,100378.83
2018-10-19T08:54:53.626Z,100387.41
2018-10-19T08:57:21.152Z,100391.66
2018-10-19T08:59:48.759Z,100385.26
2018-10-19T09:02:16.311Z,100392.17
2018-10-19T09:04:44.076Z,100406.92
2018-10-19T09:07:11.808Z,100397.20
2018-10-19T09:09:39.382Z,100399.31
2018-10-19T09:12:06.992Z,100396.37
2018-10-19T09:14:35.635Z,100397.11
2018-10-19T09:17:03.458Z,100394.09
2018-10-19T09:19:30.930Z,100391.30
2018-10-19T09:21:58.461Z,100384.31
2018-10-19T09:24:26.033Z,100387.37
2018-10-19T09:26:53.602Z,100379.62
2018-10-19T09:29:21.193Z,100382.56
2018-10-19T09:31:48.857Z,100377.98
2018-10-19T09:34:16.402Z,100375.08
2018-10-19T09:36:44.405Z,100379.53
2018-10-19T09:39:11.838Z,100376.58
2018-10-19T09:41:39.441Z,100378.17
2018-10-19T09:44:07.054Z,100377.28
2018-10-19T09:46:34.662Z,100379.34
2018-10-19T09:49:02.321Z,100370.50
2018-10-19T09:51:29.861Z,100380.15
2018-10-19T09:53:57.497Z,100376.22
2018-10-19T09:56:25.035Z,100369.16
2018-10-19T09:58:52.623Z,100377.55
2018-10-19T10:01:20.164Z,100375.52
2018-10-19T10:03:48.135Z,100370.95
2018-10-19T10:06:15.733Z,100370.76
2018-10-19T10:08:43.457Z,100378.43
2018-10-19T10:11:11.117Z,100366.12
2018-10-19T10:13:38.681Z,100369.80
2018-10-19T10:16:07.107Z,100371.38
2018-10-19T10:18:34.772Z,100371.88
2018-10-19T10:21:02.376Z,100366.21
2018-10-19T10:23:29.908Z,100363.08
2018-10-19T10:25:57.555Z,100368.58
2018-10-19T10:28:25.122Z,100366.11
2018-10-19T10:30:52.704Z,100360.80
2018-10-19T10:33:20.279Z,100369.81
2018-10-19T10:35:47.831Z,100359.82
2018-10-19T10:38:15.455Z,100349.19
2018-10-19T10:40:42.990Z,100350.42
2018-10-19T10:43:10.632Z,100349.79
2018-10-19T10:45:38.256Z,100354.88
2018-10-19T10:48:05.816Z,100341.34
2018-10-19T10:50:33.389Z,100345.08
2018-10-19T10:53:00.911Z,100338.97
2018-10-19T10:55:28.619Z,100337.16
2018-10-19T10:57:56.339Z,100335.47
2018-10-19T11:00:23.917Z,100333.94
2018-10-19T11:02:51.499Z,100331.09
2018-10-19T11:05:19.059Z,100324.56
2018-10-19T11:07:46.660Z,100321.05
2018-10-19T11:10:14.246Z,100316.33
2018-10-19T11:12:41.758Z,100313.45
2018-10-19T11:15:09.293Z,100313.05
2018-10-19T11:17:36.924Z,100313.26
2018-10-19T11:20:04.606Z,100312.63
2018-10-19T11:22:32.152Z,100311.44
2018-10-19T11:24:59.978Z,100308.72
2018-10-19T11:27:27.574Z,100301.34
2018-10-19T11:29:56.506Z,100298.31
2018-10-19T11:32:24.089Z,100300.54
2018-10-19T11:34:51.657Z,100295.17
2018-10-19T11:37:19.428Z,100305.41
2018-10-19T11:39:47.000Z,100299.13
2018-10-19T11:42:14.541Z,100298.09
2018-10-19T11:44:42.113Z,100293.59
2018-10-19T11:47:09.710Z,100295.08
2018-10-19T11:49:37.271Z,100298.62
2018-10-19T11:52:05.093Z,100295.58
2018-10-19T11:54:32.830Z,100302.30
2018-10-19T11:57:00.401Z,100299.22
2018-10-19T11:59:28.024Z,100298.19
2018-10-19T12:01:55.590Z,100298.11
2018-10-19T12:04:23.256Z,100296.36
2018-10-19T12:06:50.818Z,100297.22
2018-10-19T12:09:18.345Z,100293.54
2018-10-19T12:11:45.867Z,100298.34
2018-10-19T12:14:13.433Z,100298.77
2018-10-19T12:16:41.132Z,100291.78
2018-10-19T12:19:08.707Z,100296.66
2018-10-19T12:21:36.229Z,100279.66
2018-10-19T12:24:03.769Z,100284.87
2018-10-19T12:26:31.350Z,100284.72
2018-10-19T12:28:59.073Z,100287.77
2018-10-19T12:31:26.873Z,100290.81
2018-10-19T12:33:54.399Z,100287.39
2018-10-19T12:36:22.111Z,100294.09
2018-10-19T12:38:49.678Z,100289.00
2018-10-19T12:41:17.357Z,100283.66
2018-10-19T12:43:45.051Z,100291.05
2018-10-19T12:46:24.397Z,100285.24
2018-10-19T12:48:51.962Z,100289.36
2018-10-19T12:51:19.493Z,100289.55
2018-10-19T12:53:47.096Z,100287.66
2018-10-19T12:56:14.648Z,100286.59
2018-10-19T12:58:42.210Z,100285.74
2018-10-19T13:01:09.759Z,100270.47
2018-10-19T13:03:37.437Z,100266.03
2018-10-19T13:06:04.896Z,100268.42
2018-10-19T13:08:32.492Z,100264.95
2018-10-19T13:11:00.025Z,100257.82
2018-10-19T13:13:27.640Z,100259.08
2018-10-19T13:15:55.243Z,100259.00
2018-10-19T13:18:22.799Z,100259.99
2018-10-19T13:20:50.381Z,100261.48
2018-10-19T13:23:17.976Z,100257.37
2018-10-19T13:25:45.502Z,100256.28
2018-10-19T13:28:13.014Z,100262.91
2018-10-19T13:30:40.574Z,100252.30
2018-10-19T13:33:08.573Z,100256.83
2018-10-19T13:35:36.098Z,100256.97
2018-10-19T13:38:03.682Z,100249.47
2018-10-19T13:40:31.248Z,100253.37
2018-10-19T13:42:58.821Z,100244.94
2018-10-19T13:45:26.438Z,100247.56
2018-10-19T13:47:54.100Z,100260.93
2018-10-19T13:50:21.682Z,100258.11
2018-10-19T13:52:49.279Z,100250.38
2018-10-19T13:55:16.827Z,100244.97
2018-10-19T13:57:44.438Z,100243.02
2018-10-19T14:00:11.995Z,100246.38
2018-10-19T14:02:39.608Z,100234.35
2018-10-19T14:05:07.168Z,100235.21
2018-10-19T14:07:34.761Z,100237.77
2018-10-19T14:10:02.308Z,100232.95
2018-10-19T14:12:29.846Z,100233.36
2018-10-19T14:14:57.425Z,100226.44
2018-10-19T14:17:25.152Z,100221.45
2018-10-19T14:19:53.382Z,100221.31
2018-10-19T14:22:21.462Z,100223.56
2018-10-19T14:24:49.651Z,100231.27
2018-10-19T14:27:17.652Z,100236.20
2018-10-19T14:29:45.775Z,100231.45
2018-10-19T14:32:13.980Z,100233.19
2018-10-19T14:34:42.094Z,100230.56
2018-10-19T14:37:10.735Z,100227.88
2018-10-19T14:39:38.913Z,100226.27
2018-10-19T14:42:06.979Z,100228.66
2018-10-19T14:44:35.024Z,100230.09
2018-10-19T14:47:03.209Z,100234.59
2018-10-19T14:49:31.216Z,100228.95
2018-10-19T14:51:59.104Z,100227.47
2018-10-19T14:54:27.103Z,100228.53
2018-10-19T14:56:55.160Z,100233.95
2018-10-19T14:59:24.166Z,100235.95
2018-10-19T15:01:52.704Z,100234.88
2018-10-19T15:04:22.025Z,100226.89
2018-10-19T15:06:50.994Z,100231.56
2018-10-19T15:09:18.918Z,100226.22
2018-10-19T15:11:46.568Z,100233.12
2018-10-19T15:14:14.213Z,100227.80
2018-10-19T15:16:42.501Z,100235.24
2018-10-19T15:19:10.729Z,100235.94
2018-10-19T15:21:38.827Z,100236.63
2018-10-19T15:24:07.039Z,100233.67
2018-10-19T15:26:36.055Z,100233.39
2018-10-19T15:29:05.126Z,100235.09
2018-10-19T15:31:32.752Z,100233.77
2018-10-19T15:34:00.665Z,100231.98
2018-10-19T15:36:28.360Z,100235.80
2018-10-19T15:38:57.926Z,100237.22
2018-10-19T15:41:25.586Z,100241.47
2018-10-19T15:43:54.648Z,100248.67
2018-10-19T15:46:22.662Z,100257.00
2018-10-19T15:48:51.103Z,100257.92
2018-10-19T15:51:18.714Z,100258.91
2018-10-19T15:53:46.318Z,100254.64
2018-10-19T15:56:13.975Z,100263.53
2018-10-19T15:58:42.690Z,100261.57
2018-10-19T16:01:12.006Z,100269.06
2018-10-19T16:03:39.669Z,100266.59
2018-10-19T16:06:07.730Z,100265.33
2018-10-19T16:08:35.554Z,100268.58
2018-10-19T16:11:03.945Z,100271.39
2018-10-19T16:13:31.521Z,100266.45
2018-10-19T16:15:59.092Z,100278.31
2018-10-19T16:18:26.962Z,100267.73
2018-10-19T16:20:55.258Z,100272.32
2018-10-19T16:23:23.179Z,100278.61
2018-10-19T16:25:50.795Z,100286.66
2018-10-19T16:28:18.686Z,100280.28
2018-10-19T16:30:46.264Z,100280.64
2018-10-19T16:33:13.893Z,100289.28
2018-10-19T16:35:41.420Z,100292.59
2018-10-19T16:38:09.030Z,100288.91
2018-10-19T16:40:36.807Z,100290.52
2018-10-19T16:43:04.501Z,100296.05
2018-10-19T16:45:32.575Z,100300.70
2018-10-19T16:48:00.542Z,100301.98
2018-10-19T16:50:28.184Z,100306.37
2018-10-19T16:52:55.905Z,100303.95
2018-10-19T16:55:23.489Z,100304.95
2018-10-19T16:57:51.133Z,100297.09
2018-10-19T17:00:18.723Z,100300.13
2018-10-19T17:02:46.346Z,100304.73
2018-10-19T17:05:14.109Z,100310.05
2018-10-19T17:07:41.712Z,100305.94
2018-10-19T17:10:09.369Z,100298.92
2018-10-19T17:12:36.925Z,100306.42
2018-10-19T17:15:04.694Z,100298.10
2018-10-19T17:17:32.327Z,100297.73
2018-10-19T17:19:59.912Z,100299.17
2018-10-19T17:22:27.505Z,100299.03
2018-10-19T17:24:55.111Z,100305.51
2018-10-19T17:27:22.709Z,100313.30
2018-10-19T17:29:50.243Z,100320.34
2018-10-19T17:32:17.784Z,100322.20
2018-10-19T17:34:45.474Z,100334.84
2018-10-19T17:37:13.251Z,100337.45
2018-10-19T17:39:41.014Z,100339.63
2018-10-19T17:42:08.803Z,100349.39
2018-10-19T17:44:36.332Z,100347.45
2018-10-19T17:47:04.065Z,100351.27
2018-10-19T17:49:31.841Z,100352.42
2018-10-19T17:51:59.531Z,100360.98
2018-10-19T17:57:19.800Z,100364.66
2018-10-19T17:59:47.389Z,100372.31
2018-10-19T18:02:15.206Z,100370.71
2018-10-19T18:04:43.280Z,100366.22
2018-10-19T18:07:11.007Z,100373.50
2018-10-19T18:09:38.830Z,100370.44
2018-10-19T18:12:06.577Z,100364.02
2018-10-19T18:14:34.343Z,100369.99
2018-10-19T18:17:02.072Z,100370.79
2018-10-19T18:19:29.894Z,100370.50
2018-10-19T18:21:57.768Z,100373.75
2018-10-19T18:24:25.231Z,100379.09
2018-10-19T18:26:52.804Z,100379.98
2018-10-19T18:29:20.412Z,100385.20
2018-10-19T18:31:48.055Z,100396.48
2018-10-19T18:34:15.633Z,100392.12
2018-10-19T18:36:43.214Z,100398.02
2018-10-19T18:39:10.803Z,100403.40
2018-10-19T18:41:38.444Z,100406.77
2018-10-19T18:44:06.027Z,100408.30
2018-10-19T18:46:33.586Z,100401.38
2018-10-19T18:49:01.115Z,100403.58
2018-10-19T18:51:28.687Z,100411.72
2018-10-19T18:53:56.415Z,100408.62
2018-10-19T18:56:23.965Z,100407.45
2018-10-19T18:58:51.558Z,100410.72
2018-10-19T19:01:19.147Z,100418.32
2018-10-19T19:03:46.682Z,100422.15
2018-10-19T19:06:14.277Z,100423.05
2018-10-19T19:08:41.842Z,100430.46
2018-10-19T19:11:09.527Z,100424.78
2018-10-19T19:13:37.014Z,100422.23
2018-10-19T19:16:04.589Z,100423.53
2018-10-19T19:18:32.126Z,100429.49
2018-10-19T19:20:59.719Z,100431.50
2018-10-19T19:23:27.311Z,100432.29
2018-10-19T19:26:09.779Z,100435.05
2018-10-19T19:28:37.328Z,100435.64
2018-10-19T19:31:04.843Z,100434.37
2018-10-19T19:33:32.410Z,100429.87
2018-10-19T19:36:00.146Z,100434.11
2018-10-19T19:38:27.878Z,100439.34
2018-10-19T19:40:55.458Z,100437.86
2018-10-19T19:43:23.042Z,100444.14
2018-10-19T19:45:50.591Z,100451.75
2018-10-19T19:48:23.618Z,100444.37
2018-10-19T19:50:51.182Z,100423.33
2018-10-19T19:53:18.718Z,100411.86
2018-10-19T19:55:46.328Z,100418.46
2018-10-19T19:58:13.971Z,100439.78
2018-10-19T20:00:41.469Z,100447.55
2018-10-19T20:03:09.252Z,100444.44
2018-10-19T20:05:36.847Z,100441.59
2018-10-19T20:08:04.523Z,100446.03
2018-10-19T20:10:32.021Z,100440.87
2018-10-19T20:12:59.597Z,100439.64
2018-10-19T20:15:27.125Z,100444.27
2018-10-19T20:17:54.701Z,100439.98
2018-10-19T20:20:22.240Z,100437.91
2018-10-19T20:22:49.811Z,100436.45
2018-10-19T20:25:17.363Z,100439.78
2018-10-19T20:27:44.922Z,100441.25
2018-10-19T20:30:12.507Z,100438.69
2018-10-19T20:32:40.194Z,100433.36
2018-10-19T20:35:07.754Z,100433.25
2018-10-19T20:37:35.312Z,100424.87
2018-10-19T20:40:02.854Z,100430.12
2018-10-19T20:42:30.776Z,100426.81
2018-10-19T20:44:58.597Z,100431.73
2018-10-19T20:47:26.673Z,100443.66
2018-10-19T20:49:54.303Z,100448.90
2018-10-19T20:52:21.821Z,100453.47
2018-10-19T20:54:49.551Z,100458.23
2018-10-19T20:57:17.138Z,100469.43
2018-10-19T20:59:44.674Z,100463.25
2018-10-19T21:02:12.328Z,100471.37
2018-10-19T21:04:39.848Z,100462.94
2018-10-19T21:07:08.703Z,100461.07
2018-10-19T21:09:36.219Z,100450.59
2018-10-19T21:12:03.794Z,100457.13
2018-10-19T21:14:31.401Z,100460.06
2018-10-19T21:16:58.995Z,100469.34
2018-10-19T21:19:26.604Z,100470.16
2018-10-19T21:21:54.329Z,100473.66
2018-10-19T21:24:21.891Z,100477.95
2018-10-19T21:26:49.422Z,100475.08
2018-10-19T21:29:17.012Z,100467.77
2018-10-19T21:31:44.588Z,100469.56
2018-10-19T21:34:12.301Z,100469.47
2018-10-19T21:36:39.832Z,100467.55
2018-10-19T21:39:07.395Z,100467.77
2018-10-19T21:41:34.969Z,100463.48
2018-10-19T21:44:02.563Z,100466.85
2018-10-19T21:46:30.218Z,100469.38
2018-10-19T21:48:57.764Z,100475.42
2018-10-19T21:51:25.364Z,100487.77
2018-10-19T21:53:52.916Z,100496.38
2018-10-19T21:56:20.445Z,100490.73
2018-10-19T21:58:48.018Z,100489.40
2018-10-19T22:01:15.576Z,100493.27
2018-10-19T22:03:43.312Z,100488.42
2018-10-19T22:06:10.892Z,100484.36
2018-10-19T22:08:38.564Z,100490.17
2018-10-19T22:11:06.155Z,100498.61
2018-10-19T22:13:33.690Z,100498.22
2018-10-19T22:16:01.267Z,100494.34
2018-10-19T22:18:28.806Z,100498.98
2018-10-19T22:20:56.494Z,100498.07
2018-10-19T22:23:24.140Z,100498.56
2018-10-19T22:25:51.661Z,100510.29
2018-10-19T22:28:19.458Z,100522.35
2018-10-19T22:30:46.987Z,100523.27
2018-10-19T22:33:14.552Z,100533.47
2018-10-19T22:35:42.084Z,100522.56
2018-10-19T22:38:09.656Z,100529.28
2018-10-19T22:40:37.182Z,100524.86
2018-10-19T22:43:04.850Z,100535.84
2018-10-19T22:45:32.437Z,100530.91
2018-10-19T22:48:00.028Z,100529.34
2018-10-19T22:50:27.801Z,100515.53
2018-10-19T22:52:55.380Z,100513.36
2018-10-19T22:55:23.023Z,100514.70
2018-10-19T22:57:50.590Z,100522.77
2018-10-19T23:00:18.142Z,100531.84
2018-10-19T23:02:45.733Z,100535.59
2018-10-19T23:05:13.294Z,100535.37
2018-10-19T23:07:40.832Z,100539.38
2018-10-19T23:10:08.420Z,100532.04
2018-10-19T23:12:35.951Z,100546.48
2018-10-19T23:15:03.644Z,100554.84
2018-10-19T23:17:31.170Z,100558.23
2018-10-19T23:19:58.809Z,100548.75
2018-10-19T23:22:26.360Z,100559.89
2018-10-19T23:24:53.971Z,100560.67
2018-10-19T23:27:21.509Z,100557.29
2018-10-19T23:29:49.291Z,100550.20
2018-10-19T23:32:16.887Z,100550.75
2018-10-19T23:34:44.445Z,100556.63
2018-10-19T23:37:12.069Z,100547.27
2018-10-19T23:39:39.559Z,100553.94
2018-10-19T23:44:38.569Z,100551.38
2018-10-19T23:47:06.198Z,100546.56
2018-10-19T23:49:33.772Z,100539.60
2018-10-19T23:52:01.306Z,100535.99
2018-10-19T23:54:28.886Z,100528.44
2018-10-19T23:56:56.416Z,100542.94
2018-10-19T23:59:24.015Z,100529.95
